sensor_id;sensor_type;location;lat;lon;timestamp;pressure;altitude;pressure_sealevel;temperature;humidity
18795;BME280;29610;49.022;12.114;2023-02-13T00:01:33;99797.50;;;4.05;100.00
18795;BME280;29610;49.022;12.114;2023-02-13T00:04:02;99789.28;;;4.00;100.00
18795;BME280;29610;49.022;12.114;2023-02-13T00:06:30;99793.38;;;4.02;100.00
18795;BME280;29610;49.022;12.114;2023-02-13T00:08:59;99783.44;;;4.03;100.00
18795;BME280;29610;49.022;12.114;2023-02-13T00:11:28;99778.88;;;4.03;100.00
18795;BME280;29610;49.022;12.114;2023-02-13T00:13:57;99783.66;;;4.01;100.00
18795;BME280;29610;49.022;12.114;2023-02-13T00:16:26;99784.97;;;4.10;100.00
18795;BME280;29610;49.022;12.114;2023-02-13T00:18:56;99786.03;;;4.09;100.00
18795;BME280;29610;49.022;12.114;2023-02-13T00:21:24;99783.34;;;4.09;100.00
18795;BME280;29610;49.022;12.114;2023-02-13T00:23:53;99777.69;;;3.99;100.00
18795;BME280;29610;49.022;12.114;2023-02-13T00:26:22;99777.66;;;4.17;100.00
18795;BME280;29610;49.022;12.114;2023-02-13T00:28:50;99778.72;;;4.16;100.00
18795;BME280;29610;49.022;12.114;2023-02-13T00:31:20;99785.59;;;4.12;100.00
18795;BME280;29610;49.022;12.114;2023-02-13T00:33:49;99788.31;;;4.24;100.00
18795;BME280;29610;49.022;12.114;2023-02-13T00:36:22;99784.66;;;4.18;100.00
18795;BME280;29610;49.022;12.114;2023-02-13T00:38:52;99784.41;;;4.20;100.00
18795;BME280;29610;49.022;12.114;2023-02-13T00:41:21;99781.16;;;4.18;100.00
18795;BME280;29610;49.022;12.114;2023-02-13T00:43:51;99793.28;;;4.09;100.00
18795;BME280;29610;49.022;12.114;2023-02-13T00:46:19;99792.03;;;4.11;100.00
18795;BME280;29610;49.022;12.114;2023-02-13T00:48:48;99792.69;;;4.07;100.00
18795;BME280;29610;49.022;12.114;2023-02-13T00:51:16;99787.81;;;4.15;100.00
18795;BME280;29610;49.022;12.114;2023-02-13T00:53:46;99792.91;;;4.05;100.00
18795;BME280;29610;49.022;12.114;2023-02-13T00:56:16;99799.88;;;4.13;100.00
18795;BME280;29610;49.022;12.114;2023-02-13T00:58:45;99795.19;;;4.08;100.00
18795;BME280;29610;49.022;12.114;2023-02-13T01:01:14;99797.88;;;4.08;100.00
18795;BME280;29610;49.022;12.114;2023-02-13T01:03:42;99795.25;;;4.02;100.00
18795;BME280;29610;49.022;12.114;2023-02-13T01:06:11;99797.72;;;4.03;100.00
18795;BME280;29610;49.022;12.114;2023-02-13T01:08:41;99800.88;;;4.00;100.00
18795;BME280;29610;49.022;12.114;2023-02-13T01:11:11;99801.81;;;4.06;100.00
18795;BME280;29610;49.022;12.114;2023-02-13T01:13:40;99802.56;;;4.13;100.00
18795;BME280;29610;49.022;12.114;2023-02-13T01:16:09;99800.03;;;4.00;100.00
18795;BME280;29610;49.022;12.114;2023-02-13T01:18:38;99795.25;;;4.02;100.00
18795;BME280;29610;49.022;12.114;2023-02-13T01:21:14;99792.19;;;3.98;100.00
18795;BME280;29610;49.022;12.114;2023-02-13T01:23:45;99787.53;;;4.05;100.00
18795;BME280;29610;49.022;12.114;2023-02-13T01:26:18;99791.50;;;4.03;100.00
18795;BME280;29610;49.022;12.114;2023-02-13T01:28:52;99782.28;;;3.99;100.00
18795;BME280;29610;49.022;12.114;2023-02-13T01:31:21;99784.72;;;4.00;100.00
18795;BME280;29610;49.022;12.114;2023-02-13T01:33:51;99775.13;;;4.04;100.00
18795;BME280;29610;49.022;12.114;2023-02-13T01:36:21;99770.59;;;4.05;100.00
18795;BME280;29610;49.022;12.114;2023-02-13T01:38:53;99775.09;;;3.93;100.00
18795;BME280;29610;49.022;12.114;2023-02-13T01:41:26;99769.63;;;3.99;100.00
18795;BME280;29610;49.022;12.114;2023-02-13T01:43:57;99767.38;;;3.96;100.00
18795;BME280;29610;49.022;12.114;2023-02-13T01:46:30;99772.97;;;4.13;100.00
18795;BME280;29610;49.022;12.114;2023-02-13T01:49:15;99761.28;;;3.89;100.00
18795;BME280;29610;49.022;12.114;2023-02-13T01:51:48;99759.25;;;3.85;100.00
18795;BME280;29610;49.022;12.114;2023-02-13T01:54:24;99766.25;;;3.74;100.00
18795;BME280;29610;49.022;12.114;2023-02-13T01:57:05;99772.56;;;3.80;100.00
18795;BME280;29610;49.022;12.114;2023-02-13T01:59:43;99772.94;;;3.83;100.00
18795;BME280;29610;49.022;12.114;2023-02-13T02:02:15;99773.59;;;3.97;100.00
18795;BME280;29610;49.022;12.114;2023-02-13T02:04:47;99771.09;;;3.84;100.00
18795;BME280;29610;49.022;12.114;2023-02-13T02:07:23;99775.50;;;3.78;100.00
18795;BME280;29610;49.022;12.114;2023-02-13T02:09:58;99770.72;;;3.80;100.00
18795;BME280;29610;49.022;12.114;2023-02-13T02:12:35;99767.78;;;3.82;100.00
18795;BME280;29610;49.022;12.114;2023-02-13T02:15:09;99766.88;;;3.88;100.00
18795;BME280;29610;49.022;12.114;2023-02-13T02:17:38;99763.09;;;3.77;100.00
18795;BME280;29610;49.022;12.114;2023-02-13T02:20:23;99766.09;;;3.69;100.00
18795;BME280;29610;49.022;12.114;2023-02-13T02:23:39;99764.97;;;3.77;100.00
18795;BME280;29610;49.022;12.114;2023-02-13T02:27:22;99757.59;;;3.72;100.00
18795;BME280;29610;49.022;12.114;2023-02-13T02:33:41;99759.25;;;3.85;100.00
18795;BME280;29610;49.022;12.114;2023-02-13T02:36:29;99759.81;;;3.75;100.00
18795;BME280;29610;49.022;12.114;2023-02-13T02:39:13;99751.19;;;3.73;100.00
18795;BME280;29610;49.022;12.114;2023-02-13T02:41:59;99751.38;;;3.72;100.00
18795;BME280;29610;49.022;12.114;2023-02-13T02:44:42;99752.28;;;3.66;100.00
18795;BME280;29610;49.022;12.114;2023-02-13T02:47:24;99752.06;;;3.67;100.00
18795;BME280;29610;49.022;12.114;2023-02-13T02:50:34;99748.22;;;3.45;100.00
18795;BME280;29610;49.022;12.114;2023-02-13T02:53:17;99750.06;;;3.45;100.00
18795;BME280;29610;49.022;12.114;2023-02-13T02:55:55;99750.69;;;3.47;100.00
18795;BME280;29610;49.022;12.114;2023-02-13T02:58:37;99742.25;;;3.43;100.00
18795;BME280;29610;49.022;12.114;2023-02-13T03:01:29;99747.38;;;3.45;100.00
18795;BME280;29610;49.022;12.114;2023-02-13T03:04:23;99747.47;;;3.02;100.00
18795;BME280;29610;49.022;12.114;2023-02-13T03:07:16;99751.88;;;3.15;100.00
18795;BME280;29610;49.022;12.114;2023-02-13T03:09:51;99757.03;;;3.16;100.00
18795;BME280;29610;49.022;12.114;2023-02-13T03:12:45;99761.44;;;3.11;100.00
18795;BME280;29610;49.022;12.114;2023-02-13T03:15:38;99748.91;;;3.05;100.00
18795;BME280;29610;49.022;12.114;2023-02-13T03:18:33;99749.03;;;3.10;100.00
18795;BME280;29610;49.022;12.114;2023-02-13T03:21:37;99749.34;;;2.83;100.00
18795;BME280;29610;49.022;12.114;2023-02-13T03:24:44;99760.59;;;2.74;100.00
18795;BME280;29610;49.022;12.114;2023-02-13T03:27:31;99755.31;;;2.85;100.00
18795;BME280;29610;49.022;12.114;2023-02-13T03:30:34;99754.94;;;2.82;100.00
18795;BME280;29610;49.022;12.114;2023-02-13T03:33:22;99749.34;;;2.83;100.00
18795;BME280;29610;49.022;12.114;2023-02-13T03:36:02;99745.50;;;2.73;100.00
18795;BME280;29610;49.022;12.114;2023-02-13T03:38:58;99748.63;;;2.70;100.00
18795;BME280;29610;49.022;12.114;2023-02-13T03:41:37;99745.03;;;3.00;100.00
18795;BME280;29610;49.022;12.114;2023-02-13T03:44:14;99755.69;;;3.07;100.00
18795;BME280;29610;49.022;12.114;2023-02-13T03:46:47;99749.03;;;3.10;100.00
18795;BME280;29610;49.022;12.114;2023-02-13T03:49:22;99752.72;;;3.15;100.00
18795;BME280;29610;49.022;12.114;2023-02-13T03:52:15;99762.34;;;3.23;100.00
18795;BME280;29610;49.022;12.114;2023-02-13T03:54:52;99754.41;;;3.10;100.00
18795;BME280;29610;49.022;12.114;2023-02-13T03:57:44;99750.47;;;3.12;100.00
18795;BME280;29610;49.022;12.114;2023-02-13T04:00:36;99749.03;;;3.10;100.00
18795;BME280;29610;49.022;12.114;2023-02-13T04:03:15;99753.78;;;3.14;100.00
18795;BME280;29610;49.022;12.114;2023-02-13T04:05:52;99753.81;;;3.26;100.00
18795;BME280;29610;49.022;12.114;2023-02-13T04:08:22;99754.34;;;3.16;100.00
18795;BME280;29610;49.022;12.114;2023-02-13T04:10:57;99760.84;;;3.09;100.00
18795;BME280;29610;49.022;12.114;2023-02-13T04:13:34;99750.19;;;3.20;100.00
18795;BME280;29610;49.022;12.114;2023-02-13T04:16:10;99752.19;;;3.25;100.00
18795;BME280;29610;49.022;12.114;2023-02-13T04:18:42;99759.16;;;3.14;100.00
18795;BME280;29610;49.022;12.114;2023-02-13T04:21:11;99758.63;;;3.24;100.00
18795;BME280;29610;49.022;12.114;2023-02-13T04:23:40;99753.16;;;3.12;100.00
18795;BME280;29610;49.022;12.114;2023-02-13T04:26:17;99751.91;;;2.96;100.00
18795;BME280;29610;49.022;12.114;2023-02-13T04:28:48;99749.03;;;3.10;100.00
18795;BME280;29610;49.022;12.114;2023-02-13T04:31:16;99754.66;;;3.26;100.00
18795;BME280;29610;49.022;12.114;2023-02-13T04:33:45;99751.25;;;3.19;100.00
18795;BME280;29610;49.022;12.114;2023-02-13T04:36:14;99753.16;;;3.12;100.00
18795;BME280;29610;49.022;12.114;2023-02-13T04:38:42;99754.56;;;3.15;100.00
18795;BME280;29610;49.022;12.114;2023-02-13T04:41:12;99749.13;;;3.21;100.00
18795;BME280;29610;49.022;12.114;2023-02-13T04:43:40;99757.94;;;3.10;100.00
18795;BME280;29610;49.022;12.114;2023-02-13T04:46:10;99745.97;;;3.24;100.00
18795;BME280;29610;49.022;12.114;2023-02-13T04:48:39;99743.38;;;3.18;100.00
18795;BME280;29610;49.022;12.114;2023-02-13T04:51:08;99738.09;;;3.11;100.00
18795;BME280;29610;49.022;12.114;2023-02-13T04:53:37;99739.28;;;3.15;100.00
18795;BME280;29610;49.022;12.114;2023-02-13T04:56:06;99738.00;;;3.18;100.00
18795;BME280;29610;49.022;12.114;2023-02-13T04:58:34;99743.38;;;2.99;100.00
18795;BME280;29610;49.022;12.114;2023-02-13T05:01:12;99743.53;;;3.05;100.00
18795;BME280;29610;49.022;12.114;2023-02-13T05:03:42;99747.84;;;2.87;100.00
18795;BME280;29610;49.022;12.114;2023-02-13T05:06:10;99746.88;;;3.00;100.00
18795;BME280;29610;49.022;12.114;2023-02-13T05:08:39;99745.25;;;3.17;100.00
18795;BME280;29610;49.022;12.114;2023-02-13T05:11:08;99743.97;;;3.20;100.00
18795;BME280;29610;49.022;12.114;2023-02-13T05:13:37;99740.25;;;3.21;100.00
18795;BME280;29610;49.022;12.114;2023-02-13T05:16:05;99745.16;;;3.06;100.00
18795;BME280;29610;49.022;12.114;2023-02-13T05:18:35;99739.50;;;3.14;100.00
18795;BME280;29610;49.022;12.114;2023-02-13T05:21:04;99749.03;;;3.10;100.00
18795;BME280;29610;49.022;12.114;2023-02-13T05:23:50;99744.19;;;3.18;100.00
18795;BME280;29610;49.022;12.114;2023-02-13T05:26:19;99747.63;;;3.07;100.00
18795;BME280;29610;49.022;12.114;2023-02-13T05:28:48;99751.72;;;3.10;100.00
18795;BME280;29610;49.022;12.114;2023-02-13T05:31:34;99753.69;;;3.03;100.00
18795;BME280;29610;49.022;12.114;2023-02-13T05:34:04;99752.03;;;2.83;100.00
18795;BME280;29610;49.022;12.114;2023-02-13T05:36:33;99753.59;;;2.91;100.00
18795;BME280;29610;49.022;12.114;2023-02-13T05:39:01;99761.88;;;2.89;100.00
18795;BME280;29610;49.022;12.114;2023-02-13T05:41:30;99758.81;;;2.86;100.00
18795;BME280;29610;49.022;12.114;2023-02-13T05:43:59;99759.06;;;3.03;100.00
18795;BME280;29610;49.022;12.114;2023-02-13T05:46:28;99764.22;;;3.04;100.00
18795;BME280;29610;49.022;12.114;2023-02-13T05:48:57;99769.41;;;2.99;100.00
18795;BME280;29610;49.022;12.114;2023-02-13T05:51:27;99761.50;;;2.86;100.00
18795;BME280;29610;49.022;12.114;2023-02-13T05:53:55;99769.41;;;2.99;100.00
18795;BME280;29610;49.022;12.114;2023-02-13T05:56:24;99758.44;;;3.00;100.00
18795;BME280;29610;49.022;12.114;2023-02-13T05:58:54;99773.16;;;2.98;100.00
18795;BME280;29610;49.022;12.114;2023-02-13T06:01:23;99776.22;;;3.02;100.00
18795;BME280;29610;49.022;12.114;2023-02-13T06:03:53;99775.19;;;3.03;100.00
18795;BME280;29610;49.022;12.114;2023-02-13T06:06:26;99779.66;;;3.09;100.00
18795;BME280;29610;49.022;12.114;2023-02-13T06:08:55;99776.41;;;3.00;100.00
18795;BME280;29610;49.022;12.114;2023-02-13T06:11:23;99783.28;;;2.96;100.00
18795;BME280;29610;49.022;12.114;2023-02-13T06:13:52;99787.16;;;3.00;100.00
18795;BME280;29610;49.022;12.114;2023-02-13T06:16:21;99785.09;;;3.02;100.00
18795;BME280;29610;49.022;12.114;2023-02-13T06:18:50;99789.44;;;3.03;100.00
18795;BME280;29610;49.022;12.114;2023-02-13T06:21:19;99790.97;;;2.92;100.00
18795;BME280;29610;49.022;12.114;2023-02-13T06:23:50;99786.38;;;2.75;100.00
18795;BME280;29610;49.022;12.114;2023-02-13T06:26:19;99805.19;;;2.75;100.00
18795;BME280;29610;49.022;12.114;2023-02-13T06:28:47;99796.84;;;2.83;100.00
18795;BME280;29610;49.022;12.114;2023-02-13T06:31:16;99806.34;;;2.85;100.00
18795;BME280;29610;49.022;12.114;2023-02-13T06:33:45;99807.13;;;2.86;100.00
18795;BME280;29610;49.022;12.114;2023-02-13T06:36:13;99805.22;;;2.93;100.00
18795;BME280;29610;49.022;12.114;2023-02-13T06:38:42;99809.31;;;2.95;100.00
18795;BME280;29610;49.022;12.114;2023-02-13T06:41:12;99809.16;;;2.90;100.00
18795;BME280;29610;49.022;12.114;2023-02-13T06:43:42;99810.69;;;3.05;100.00
18795;BME280;29610;49.022;12.114;2023-02-13T06:46:11;99813.69;;;3.15;100.00
18795;BME280;29610;49.022;12.114;2023-02-13T06:48:39;99820.03;;;3.20;100.00
18795;BME280;29610;49.022;12.114;2023-02-13T06:51:08;99819.75;;;3.28;100.00
18795;BME280;29610;49.022;12.114;2023-02-13T06:53:36;99823.47;;;3.27;100.00
18795;BME280;29610;49.022;12.114;2023-02-13T06:56:06;99812.03;;;3.14;100.00
18795;BME280;29610;49.022;12.114;2023-02-13T06:58:36;99816.16;;;3.16;100.00
18795;BME280;29610;49.022;12.114;2023-02-13T07:01:06;99819.38;;;3.25;100.00
18795;BME280;29610;49.022;12.114;2023-02-13T07:03:35;99827.75;;;3.35;100.00
18795;BME280;29610;49.022;12.114;2023-02-13T07:06:05;99826.53;;;3.31;100.00
18795;BME280;29610;49.022;12.114;2023-02-13T07:08:33;99821.69;;;3.39;100.00
18795;BME280;29610;49.022;12.114;2023-02-13T07:11:02;99825.22;;;3.40;100.00
18795;BME280;29610;49.022;12.114;2023-02-13T07:13:31;99824.38;;;3.39;100.00
18795;BME280;29610;49.022;12.114;2023-02-13T07:16:01;99825.72;;;3.48;100.00
18795;BME280;29610;49.022;12.114;2023-02-13T07:18:30;99827.13;;;3.69;100.00
18795;BME280;29610;49.022;12.114;2023-02-13T07:20:58;99825.03;;;3.71;100.00
18795;BME280;29610;49.022;12.114;2023-02-13T07:23:27;99832.66;;;3.74;100.00
18795;BME280;29610;49.022;12.114;2023-02-13T07:25:59;99831.84;;;3.73;100.00
18795;BME280;29610;49.022;12.114;2023-02-13T07:28:28;99834.44;;;3.80;100.00
18795;BME280;29610;49.022;12.114;2023-02-13T07:31:04;99841.16;;;3.89;100.00
18795;BME280;29610;49.022;12.114;2023-02-13T07:33:34;99833.25;;;3.94;100.00
18795;BME280;29610;49.022;12.114;2023-02-13T07:36:04;99831.00;;;3.91;100.00
18795;BME280;29610;49.022;12.114;2023-02-13T07:38:33;99833.16;;;4.00;100.00
18795;BME280;29610;49.022;12.114;2023-02-13T07:41:03;99833.78;;;4.14;100.00
18795;BME280;29610;49.022;12.114;2023-02-13T07:43:32;99826.41;;;4.09;100.00
18795;BME280;29610;49.022;12.114;2023-02-13T07:46:02;99835.31;;;4.21;100.00
18795;BME280;29610;49.022;12.114;2023-02-13T07:48:32;99837.00;;;4.22;100.00
18795;BME280;29610;49.022;12.114;2023-02-13T07:51:03;99826.31;;;4.16;100.00
18795;BME280;29610;49.022;12.114;2023-02-13T07:53:32;99832.19;;;4.24;100.00
18795;BME280;29610;49.022;12.114;2023-02-13T07:56:05;99839.59;;;4.29;100.00
18795;BME280;29610;49.022;12.114;2023-02-13T07:58:34;99834.78;;;4.31;100.00
18795;BME280;29610;49.022;12.114;2023-02-13T08:01:07;99835.47;;;4.26;100.00
18795;BME280;29610;49.022;12.114;2023-02-13T08:03:38;99832.59;;;4.39;100.00
18795;BME280;29610;49.022;12.114;2023-02-13T08:06:08;99830.69;;;4.28;100.00
18795;BME280;29610;49.022;12.114;2023-02-13T08:08:37;99840.72;;;4.51;100.00
18795;BME280;29610;49.022;12.114;2023-02-13T08:11:18;99840.06;;;4.26;100.00
18795;BME280;29610;49.022;12.114;2023-02-13T08:14:07;99829.06;;;4.39;100.00
18795;BME280;29610;49.022;12.114;2023-02-13T08:16:36;99828.06;;;4.63;100.00
18795;BME280;29610;49.022;12.114;2023-02-13T08:19:06;99835.41;;;4.97;100.00
18795;BME280;29610;49.022;12.114;2023-02-13T08:21:35;99828.72;;;5.11;100.00
18795;BME280;29610;49.022;12.114;2023-02-13T08:24:05;99828.72;;;4.88;100.00
18795;BME280;29610;49.022;12.114;2023-02-13T08:26:34;99831.06;;;4.96;100.00
18795;BME280;29610;49.022;12.114;2023-02-13T08:29:04;99836.78;;;5.00;100.00
18795;BME280;29610;49.022;12.114;2023-02-13T08:31:33;99835.50;;;4.91;100.00
18795;BME280;29610;49.022;12.114;2023-02-13T08:34:02;99833.19;;;5.06;100.00
18795;BME280;29610;49.022;12.114;2023-02-13T08:36:32;99833.78;;;4.96;100.00
18795;BME280;29610;49.022;12.114;2023-02-13T08:39:01;99833.41;;;4.93;100.00
18795;BME280;29610;49.022;12.114;2023-02-13T08:41:30;99829.16;;;5.31;100.00
18795;BME280;29610;49.022;12.114;2023-02-13T08:43:59;99830.00;;;5.43;100.00
18795;BME280;29610;49.022;12.114;2023-02-13T08:46:27;99829.38;;;5.53;100.00
18795;BME280;29610;49.022;12.114;2023-02-13T08:48:56;99836.41;;;5.65;100.00
18795;BME280;29610;49.022;12.114;2023-02-13T08:51:25;99838.28;;;5.65;100.00
18795;BME280;29610;49.022;12.114;2023-02-13T08:53:55;99835.22;;;5.84;100.00
18795;BME280;29610;49.022;12.114;2023-02-13T08:56:24;99846.19;;;6.06;100.00
18795;BME280;29610;49.022;12.114;2023-02-13T08:58:53;99835.31;;;5.89;100.00
18795;BME280;29610;49.022;12.114;2023-02-13T09:01:22;99836.38;;;5.77;100.00
18795;BME280;29610;49.022;12.114;2023-02-13T09:03:51;99849.88;;;5.88;100.00
18795;BME280;29610;49.022;12.114;2023-02-13T09:06:20;99843.56;;;6.11;100.00
18795;BME280;29610;49.022;12.114;2023-02-13T09:08:49;99843.88;;;6.26;100.00
18795;BME280;29610;49.022;12.114;2023-02-13T09:11:19;99843.69;;;6.44;100.00
18795;BME280;29610;49.022;12.114;2023-02-13T09:13:52;99837.78;;;6.64;100.00
18795;BME280;29610;49.022;12.114;2023-02-13T09:16:22;99837.44;;;6.44;100.00
18795;BME280;29610;49.022;12.114;2023-02-13T09:18:51;99835.44;;;6.51;100.00
18795;BME280;29610;49.022;12.114;2023-02-13T09:21:22;99837.78;;;6.64;100.00
18795;BME280;29610;49.022;12.114;2023-02-13T09:23:51;99838.13;;;6.67;100.00
18795;BME280;29610;49.022;12.114;2023-02-13T09:26:23;99840.94;;;6.28;100.00
18795;BME280;29610;49.022;12.114;2023-02-13T09:28:51;99843.53;;;6.51;100.00
18795;BME280;29610;49.022;12.114;2023-02-13T09:31:20;99834.53;;;6.95;100.00
18795;BME280;29610;49.022;12.114;2023-02-13T09:33:55;99842.09;;;7.09;100.00
18795;BME280;29610;49.022;12.114;2023-02-13T09:36:24;99848.03;;;7.28;100.00
18795;BME280;29610;49.022;12.114;2023-02-13T09:38:55;99834.66;;;7.38;100.00
18795;BME280;29610;49.022;12.114;2023-02-13T09:41:29;99835.78;;;7.42;100.00
18795;BME280;29610;49.022;12.114;2023-02-13T09:44:03;99830.03;;;7.55;100.00
18795;BME280;29610;49.022;12.114;2023-02-13T09:46:37;99828.53;;;7.64;100.00
18795;BME280;29610;49.022;12.114;2023-02-13T09:49:12;99827.69;;;7.80;100.00
18795;BME280;29610;49.022;12.114;2023-02-13T09:51:44;99832.38;;;7.68;100.00
18795;BME280;29610;49.022;12.114;2023-02-13T09:54:16;99829.22;;;7.76;100.00
18795;BME280;29610;49.022;12.114;2023-02-13T09:56:54;99829.47;;;7.96;100.00
18795;BME280;29610;49.022;12.114;2023-02-13T09:59:45;99834.75;;;8.08;100.00
18795;BME280;29610;49.022;12.114;2023-02-13T10:02:36;99828.31;;;8.14;100.00
18795;BME280;29610;49.022;12.114;2023-02-13T10:05:27;99830.81;;;8.15;100.00
18795;BME280;29610;49.022;12.114;2023-02-13T10:08:09;99831.03;;;8.14;100.00
18795;BME280;29610;49.022;12.114;2023-02-13T10:10:50;99837.03;;;8.37;100.00
18795;BME280;29610;49.022;12.114;2023-02-13T10:13:40;99835.44;;;8.41;100.00
18795;BME280;29610;49.022;12.114;2023-02-13T10:16:16;99837.09;;;8.42;100.00
18795;BME280;29610;49.022;12.114;2023-02-13T10:18:52;99836.13;;;8.53;100.00
18795;BME280;29610;49.022;12.114;2023-02-13T10:21:27;99838.94;;;8.68;100.00
18795;BME280;29610;49.022;12.114;2023-02-13T10:24:04;99831.69;;;8.74;100.00
18795;BME280;29610;49.022;12.114;2023-02-13T10:26:38;99838.78;;;8.48;100.00
18795;BME280;29610;49.022;12.114;2023-02-13T10:29:21;99837.84;;;8.38;100.00
18795;BME280;29610;49.022;12.114;2023-02-13T10:32:13;99840.75;;;8.58;100.00
18795;BME280;29610;49.022;12.114;2023-02-13T10:34:45;99834.09;;;8.70;100.00
18795;BME280;29610;49.022;12.114;2023-02-13T10:37:16;99832.13;;;8.61;100.00
18795;BME280;29610;49.022;12.114;2023-02-13T10:39:48;99836.03;;;8.75;100.00
18795;BME280;29610;49.022;12.114;2023-02-13T10:42:22;99828.22;;;8.78;100.00
18795;BME280;29610;49.022;12.114;2023-02-13T10:45:12;99832.22;;;8.71;100.00
18795;BME280;29610;49.022;12.114;2023-02-13T10:48:04;99832.34;;;8.86;100.00
18795;BME280;29610;49.022;12.114;2023-02-13T10:50:43;99826.47;;;8.99;100.00
18795;BME280;29610;49.022;12.114;2023-02-13T10:53:22;99830.22;;;8.93;100.00
18795;BME280;29610;49.022;12.114;2023-02-13T10:56:19;99833.75;;;8.93;100.00
18795;BME280;29610;49.022;12.114;2023-02-13T10:59:04;99829.75;;;9.01;100.00
18795;BME280;29610;49.022;12.114;2023-02-13T11:01:45;99826.91;;;8.86;100.00
18795;BME280;29610;49.022;12.114;2023-02-13T11:04:18;99830.41;;;8.81;100.00
18795;BME280;29610;49.022;12.114;2023-02-13T11:06:55;99820.50;;;8.65;100.00
18795;BME280;29610;49.022;12.114;2023-02-13T11:09:26;99818.63;;;8.66;100.00
18795;BME280;29610;49.022;12.114;2023-02-13T11:11:55;99822.34;;;8.60;100.00
18795;BME280;29610;49.022;12.114;2023-02-13T11:14:26;99825.28;;;8.85;100.00
18795;BME280;29610;49.022;12.114;2023-02-13T11:16:59;99824.63;;;8.73;100.00
18795;BME280;29610;49.022;12.114;2023-02-13T11:19:32;99825.50;;;8.78;100.00
18795;BME280;29610;49.022;12.114;2023-02-13T11:22:05;99816.78;;;8.76;100.00
18795;BME280;29610;49.022;12.114;2023-02-13T11:24:38;99822.94;;;8.67;100.00
18795;BME280;29610;49.022;12.114;2023-02-13T11:27:11;99824.28;;;8.96;100.00
18795;BME280;29610;49.022;12.114;2023-02-13T11:29:52;99825.72;;;8.72;100.00
18795;BME280;29610;49.022;12.114;2023-02-13T11:32:25;99833.72;;;8.88;100.00
18795;BME280;29610;49.022;12.114;2023-02-13T11:34:55;99830.13;;;8.83;100.00
18795;BME280;29610;49.022;12.114;2023-02-13T11:37:27;99825.13;;;8.97;100.00
18795;BME280;29610;49.022;12.114;2023-02-13T11:39:58;99829.09;;;8.89;100.00
18795;BME280;29610;49.022;12.114;2023-02-13T11:42:31;99818.03;;;8.64;100.00
18795;BME280;29610;49.022;12.114;2023-02-13T11:45:05;99824.16;;;8.81;100.00
18795;BME280;29610;49.022;12.114;2023-02-13T11:47:39;99824.03;;;8.66;100.00
18795;BME280;29610;49.022;12.114;2023-02-13T11:50:23;99825.06;;;8.92;100.00
18795;BME280;29610;49.022;12.114;2023-02-13T11:52:57;99825.88;;;8.92;100.00
18795;BME280;29610;49.022;12.114;2023-02-13T11:55:31;99825.16;;;9.07;100.00
18795;BME280;29610;49.022;12.114;2023-02-13T11:58:02;99829.84;;;9.16;100.00
18795;BME280;29610;49.022;12.114;2023-02-13T12:00:35;99820.81;;;9.42;100.00
18795;BME280;29610;49.022;12.114;2023-02-13T12:03:28;99825.56;;;9.20;100.00
18795;BME280;29610;49.022;12.114;2023-02-13T12:06:05;99823.91;;;9.14;100.00
18795;BME280;29610;49.022;12.114;2023-02-13T12:08:42;99818.16;;;9.11;100.00
18795;BME280;29610;49.022;12.114;2023-02-13T12:11:21;99815.88;;;9.34;100.00
18795;BME280;29610;49.022;12.114;2023-02-13T12:13:51;99819.13;;;9.31;100.00
18795;BME280;29610;49.022;12.114;2023-02-13T12:16:29;99813.25;;;9.08;100.00
18795;BME280;29610;49.022;12.114;2023-02-13T12:19:06;99815.56;;;9.31;100.00
18795;BME280;29610;49.022;12.114;2023-02-13T12:21:57;99803.94;;;9.30;100.00
18795;BME280;29610;49.022;12.114;2023-02-13T12:24:53;99802.00;;;9.31;100.00
18795;BME280;29610;49.022;12.114;2023-02-13T12:27:35;99799.19;;;9.11;100.00
18795;BME280;29610;49.022;12.114;2023-02-13T12:30:40;99799.34;;;9.36;100.00
18795;BME280;29610;49.022;12.114;2023-02-13T12:33:29;99792.28;;;9.35;100.00
18795;BME280;29610;49.022;12.114;2023-02-13T12:36:13;99789.59;;;9.45;100.00
18795;BME280;29610;49.022;12.114;2023-02-13T12:39:00;99788.84;;;9.49;100.00
18795;BME280;29610;49.022;12.114;2023-02-13T12:41:45;99791.72;;;9.33;100.00
18795;BME280;29610;49.022;12.114;2023-02-13T12:47:30;99776.41;;;9.63;100.00
18795;BME280;29610;49.022;12.114;2023-02-13T12:50:28;99774.03;;;9.82;100.00
18795;BME280;29610;49.022;12.114;2023-02-13T12:53:30;99776.41;;;9.63;100.00
18795;BME280;29610;49.022;12.114;2023-02-13T12:56:26;99779.94;;;9.64;100.00
18795;BME280;29610;49.022;12.114;2023-02-13T12:59:09;99779.06;;;9.53;100.00
18795;BME280;29610;49.022;12.114;2023-02-13T13:05:13;99766.06;;;9.55;100.00
18795;BME280;29610;49.022;12.114;2023-02-13T13:08:10;99757.41;;;9.63;100.00
18795;BME280;29610;49.022;12.114;2023-02-13T13:10:54;99758.97;;;9.54;100.00
18795;BME280;29610;49.022;12.114;2023-02-13T13:13:45;99755.72;;;9.47;100.00
18795;BME280;29610;49.022;12.114;2023-02-13T13:16:26;99759.63;;;9.81;100.00
18795;BME280;29610;49.022;12.114;2023-02-13T13:19:12;99750.38;;;9.72;100.00
18795;BME280;29610;49.022;12.114;2023-02-13T13:21:50;99756.66;;;9.88;100.00
18795;BME280;29610;49.022;12.114;2023-02-13T13:24:41;99755.00;;;9.77;100.00
18795;BME280;29610;49.022;12.114;2023-02-13T13:27:19;99755.78;;;9.67;100.00
18795;BME280;29610;49.022;12.114;2023-02-13T13:29:55;99756.34;;;9.69;100.00
18795;BME280;29610;49.022;12.114;2023-02-13T13:32:26;99756.16;;;9.86;100.00
18795;BME280;29610;49.022;12.114;2023-02-13T13:34:57;99755.09;;;10.02;100.00
18795;BME280;29610;49.022;12.114;2023-02-13T13:37:35;99751.56;;;10.06;100.00
18795;BME280;29610;49.022;12.114;2023-02-13T13:40:27;99754.28;;;10.01;100.00
18795;BME280;29610;49.022;12.114;2023-02-13T13:43:03;99755.28;;;9.80;100.00